Rockaway Beach, OR (97136)

10:33 AM PDT on October 23, 2014 (GMT -0700)
Central Rockaway | Change Station
CLOSE
Current Station
Personal Weather Station
Location: Rockaway Beach, OR
Elevation: 39 ft
Nearby Weather Stations

Elev 39 ft 45.62 °N, 123.94 °W | Updated 6 seconds ago

Overcast
Overcast
57.2 °F
Feels Like 57.2 °F
N
2.2
Wind Variable Wind from East
Gusts 3.8 mph

Today
High -- | Low -- °F
--% Chance of Precip.
Yesterday
High -- | Low -- °F
Precip. -- in
7:42 AM 6:16 PM
Waning Crescent, 0% visible
Pressure 29.86 in
Visibility 10.0 miles
Clouds Scattered Clouds 6500 ft
Dew Point 50 °F
Humidity 78%
Rainfall 0.50 in
Snow Depth Not available.
UV 1 out of 12
Pollen .40 out of 12
Air Quality Not available.
Flu Activity Sporadic
METAR KTMK 231715Z AUTO 14003KT 10SM SCT065 13/12 A2986 RMK AO2

More Conditions Fewer Conditions

Pressure 29.86 in
Visibility 10.0 miles
Clouds Scattered Clouds 6500 ft
Dew Point 50 °F
Humidity 78%
Rainfall 0.50 in
Snow Depth Not available.
UV 1 out of 12
Pollen .40 out of 12
Air Quality Not available.
Flu Activity Sporadic
METAR KTMK 231715Z AUTO 14003KT 10SM SCT065 13/12 A2986 RMK AO2

More Conditions Fewer Conditions

10-Day Weather Forecast

Almanac

Astronomy

Oct. 23, 2014 Rise Set
Actual Time 7:42 AM PDT 6:16 PM PDT
Civil Twilight 7:12 AM PDT 6:46 PM PDT
Nautical Twilight 6:37 AM PDT 7:20 PM PDT
Astronomical Twilight 6:03 AM PDT 7:55 PM PDT
Moon 7:27 AM PDT 6:20 PM PDT
Length of Visible Light 11h 33m
Length of Day
10h 33m
Tomorrow will be 2m 59s shorter.
Waning Crescent, 0% of the Moon is Illuminated
Today
Waning Crescent
Oct 23
New
Oct 30
First Quarter
Nov 6
Full
Nov 14
Last Quarter

Today's Extremes

State Highs State Lows

Community

WunderPhotos

Upload Photos

1,764,321 photos uploaded!

WunderBlogs® & News

Nearby

Snow Depth

Station Depth Elevation
Seine Creek 0 in 2000 ft
North Fork 0 in 3120 ft
Peavine Ridge 0 in 3500 ft
Greenpoint 0 in 3200 ft
Red Hill 0 in 4400 ft

Earthquake Activity

City Distance Mag. Time & Date
No recent earthquake activity has been reported nearby.
Minimum magnitude displayed is 2.5.

Coastal Water Temperatures

Place Temperature
Astoria, OR 61.0 °F
Westport, WA 59.0 °F

Nearby Weather Stations